sensor_id;sensor_type;location;lat;lon;timestamp;temperature;humidity
45283;DHT22;31023;44.994;1.796;2023-02-13T00:00:44;4.30;58.20
45283;DHT22;31023;44.994;1.796;2023-02-13T00:03:10;4.20;58.40
45283;DHT22;31023;44.994;1.796;2023-02-13T00:05:35;4.20;58.60
45283;DHT22;31023;44.994;1.796;2023-02-13T00:08:01;4.10;58.60
45283;DHT22;31023;44.994;1.796;2023-02-13T00:10:27;4.10;58.60
45283;DHT22;31023;44.994;1.796;2023-02-13T00:12:52;4.10;58.70
45283;DHT22;31023;44.994;1.796;2023-02-13T00:15:18;4.00;58.60
45283;DHT22;31023;44.994;1.796;2023-02-13T00:17:43;4.00;58.60
45283;DHT22;31023;44.994;1.796;2023-02-13T00:20:09;3.90;58.80
45283;DHT22;31023;44.994;1.796;2023-02-13T00:22:35;3.90;59.20
45283;DHT22;31023;44.994;1.796;2023-02-13T00:25:01;3.90;59.10
45283;DHT22;31023;44.994;1.796;2023-02-13T00:27:27;3.90;58.90
45283;DHT22;31023;44.994;1.796;2023-02-13T00:29:53;3.90;59.00
45283;DHT22;31023;44.994;1.796;2023-02-13T00:32:18;3.80;59.10
45283;DHT22;31023;44.994;1.796;2023-02-13T00:34:44;3.80;59.20
45283;DHT22;31023;44.994;1.796;2023-02-13T00:37:10;3.80;59.20
45283;DHT22;31023;44.994;1.796;2023-02-13T00:39:35;3.80;59.00
45283;DHT22;31023;44.994;1.796;2023-02-13T00:42:01;3.80;59.20
45283;DHT22;31023;44.994;1.796;2023-02-13T00:44:26;3.70;59.20
45283;DHT22;31023;44.994;1.796;2023-02-13T00:46:52;3.70;59.30
45283;DHT22;31023;44.994;1.796;2023-02-13T00:49:18;3.60;59.60
45283;DHT22;31023;44.994;1.796;2023-02-13T00:51:43;3.50;59.70
45283;DHT22;31023;44.994;1.796;2023-02-13T00:54:09;3.50;59.70
45283;DHT22;31023;44.994;1.796;2023-02-13T00:56:34;3.50;59.80
45283;DHT22;31023;44.994;1.796;2023-02-13T00:59:00;3.40;60.10
45283;DHT22;31023;44.994;1.796;2023-02-13T01:01:26;3.40;60.10
45283;DHT22;31023;44.994;1.796;2023-02-13T01:03:51;3.40;60.20
45283;DHT22;31023;44.994;1.796;2023-02-13T01:06:17;3.30;60.20
45283;DHT22;31023;44.994;1.796;2023-02-13T01:08:42;3.30;60.40
45283;DHT22;31023;44.994;1.796;2023-02-13T01:11:08;3.30;60.50
45283;DHT22;31023;44.994;1.796;2023-02-13T01:13:34;3.30;60.50
45283;DHT22;31023;44.994;1.796;2023-02-13T01:15:59;3.20;60.60
45283;DHT22;31023;44.994;1.796;2023-02-13T01:18:25;3.20;60.50
45283;DHT22;31023;44.994;1.796;2023-02-13T01:20:58;3.20;60.70
45283;DHT22;31023;44.994;1.796;2023-02-13T01:23:24;3.10;60.90
45283;DHT22;31023;44.994;1.796;2023-02-13T01:25:49;3.10;60.80
45283;DHT22;31023;44.994;1.796;2023-02-13T01:28:16;3.10;61.00
45283;DHT22;31023;44.994;1.796;2023-02-13T01:30:41;3.00;61.30
45283;DHT22;31023;44.994;1.796;2023-02-13T01:33:09;3.00;61.30
45283;DHT22;31023;44.994;1.796;2023-02-13T01:35:34;3.00;61.20
45283;DHT22;31023;44.994;1.796;2023-02-13T01:38:03;2.90;61.50
45283;DHT22;31023;44.994;1.796;2023-02-13T01:40:28;2.90;61.70
45283;DHT22;31023;44.994;1.796;2023-02-13T01:42:54;2.90;61.70
45283;DHT22;31023;44.994;1.796;2023-02-13T01:47:47;2.80;62.00
45283;DHT22;31023;44.994;1.796;2023-02-13T01:55:24;2.70;62.30
45283;DHT22;31023;44.994;1.796;2023-02-13T01:57:55;2.70;62.20
45283;DHT22;31023;44.994;1.796;2023-02-13T02:00:22;2.60;62.50
45283;DHT22;31023;44.994;1.796;2023-02-13T02:02:53;2.60;62.90
45283;DHT22;31023;44.994;1.796;2023-02-13T02:05:20;2.50;63.00
45283;DHT22;31023;44.994;1.796;2023-02-13T02:07:46;2.50;63.00
45283;DHT22;31023;44.994;1.796;2023-02-13T02:10:13;2.40;63.00
45283;DHT22;31023;44.994;1.796;2023-02-13T02:15:11;2.40;63.40
45283;DHT22;31023;44.994;1.796;2023-02-13T02:17:38;2.30;63.60
45283;DHT22;31023;44.994;1.796;2023-02-13T02:27:40;2.20;64.00
45283;DHT22;31023;44.994;1.796;2023-02-13T02:40:18;2.10;64.60
45283;DHT22;31023;44.994;1.796;2023-02-13T02:48:08;2.00;64.70
45283;DHT22;31023;44.994;1.796;2023-02-13T02:51:05;1.90;64.80
45283;DHT22;31023;44.994;1.796;2023-02-13T02:56:04;1.90;65.10
45283;DHT22;31023;44.994;1.796;2023-02-13T03:01:17;1.80;65.20
45283;DHT22;31023;44.994;1.796;2023-02-13T03:04:01;1.80;65.60
45283;DHT22;31023;44.994;1.796;2023-02-13T03:06:56;1.80;65.60
45283;DHT22;31023;44.994;1.796;2023-02-13T03:09:28;1.70;65.60
45283;DHT22;31023;44.994;1.796;2023-02-13T03:12:14;1.80;65.80
45283;DHT22;31023;44.994;1.796;2023-02-13T03:15:00;1.80;65.80
45283;DHT22;31023;44.994;1.796;2023-02-13T03:17:25;1.80;65.70
45283;DHT22;31023;44.994;1.796;2023-02-13T03:30:59;1.80;65.80
45283;DHT22;31023;44.994;1.796;2023-02-13T03:39:00;1.70;66.00
45283;DHT22;31023;44.994;1.796;2023-02-13T03:41:29;1.80;66.10
45283;DHT22;31023;44.994;1.796;2023-02-13T03:46:26;1.90;65.90
45283;DHT22;31023;44.994;1.796;2023-02-13T03:48:53;1.90;66.00
45283;DHT22;31023;44.994;1.796;2023-02-13T03:51:39;1.80;66.10
45283;DHT22;31023;44.994;1.796;2023-02-13T03:54:11;1.70;66.40
45283;DHT22;31023;44.994;1.796;2023-02-13T03:56:40;1.70;66.90
45283;DHT22;31023;44.994;1.796;2023-02-13T03:59:28;1.70;67.10
45283;DHT22;31023;44.994;1.796;2023-02-13T04:02:15;1.60;67.30
45283;DHT22;31023;44.994;1.796;2023-02-13T04:04:50;1.60;67.60
45283;DHT22;31023;44.994;1.796;2023-02-13T04:07:19;1.50;67.80
45283;DHT22;31023;44.994;1.796;2023-02-13T04:09:55;1.50;68.80
45283;DHT22;31023;44.994;1.796;2023-02-13T04:12:25;1.50;68.00
45283;DHT22;31023;44.994;1.796;2023-02-13T04:15:00;1.40;68.30
45283;DHT22;31023;44.994;1.796;2023-02-13T04:17:38;1.40;68.40
45283;DHT22;31023;44.994;1.796;2023-02-13T04:20:06;1.50;68.50
45283;DHT22;31023;44.994;1.796;2023-02-13T04:22:32;1.40;68.70
45283;DHT22;31023;44.994;1.796;2023-02-13T04:24:58;1.40;68.80
45283;DHT22;31023;44.994;1.796;2023-02-13T04:27:24;1.30;69.00
45283;DHT22;31023;44.994;1.796;2023-02-13T04:29:50;1.30;69.00
45283;DHT22;31023;44.994;1.796;2023-02-13T04:32:16;1.40;69.10
45283;DHT22;31023;44.994;1.796;2023-02-13T04:34:41;1.40;68.80
45283;DHT22;31023;44.994;1.796;2023-02-13T04:37:07;1.40;68.80
45283;DHT22;31023;44.994;1.796;2023-02-13T04:39:33;1.30;68.90
45283;DHT22;31023;44.994;1.796;2023-02-13T04:41:59;1.40;68.80
45283;DHT22;31023;44.994;1.796;2023-02-13T04:44:24;1.40;68.90
45283;DHT22;31023;44.994;1.796;2023-02-13T04:46:50;1.40;68.90
45283;DHT22;31023;44.994;1.796;2023-02-13T04:49:16;1.30;69.10
45283;DHT22;31023;44.994;1.796;2023-02-13T04:51:41;1.30;69.30
45283;DHT22;31023;44.994;1.796;2023-02-13T04:54:07;1.30;69.20
45283;DHT22;31023;44.994;1.796;2023-02-13T04:56:32;1.20;69.50
45283;DHT22;31023;44.994;1.796;2023-02-13T04:58:58;1.20;69.80
45283;DHT22;31023;44.994;1.796;2023-02-13T05:01:23;1.10;70.10
45283;DHT22;31023;44.994;1.796;2023-02-13T05:03:49;1.20;70.10
45283;DHT22;31023;44.994;1.796;2023-02-13T05:06:15;1.00;70.40
45283;DHT22;31023;44.994;1.796;2023-02-13T05:08:40;1.00;70.40
45283;DHT22;31023;44.994;1.796;2023-02-13T05:11:06;0.90;70.60
45283;DHT22;31023;44.994;1.796;2023-02-13T05:13:31;0.90;70.70
45283;DHT22;31023;44.994;1.796;2023-02-13T05:15:57;0.90;70.80
45283;DHT22;31023;44.994;1.796;2023-02-13T05:18:23;0.90;71.70
45283;DHT22;31023;44.994;1.796;2023-02-13T05:20:48;0.90;71.20
45283;DHT22;31023;44.994;1.796;2023-02-13T05:23:37;0.80;71.40
45283;DHT22;31023;44.994;1.796;2023-02-13T05:26:03;0.80;71.70
45283;DHT22;31023;44.994;1.796;2023-02-13T05:28:28;0.80;71.70
45283;DHT22;31023;44.994;1.796;2023-02-13T05:31:13;0.70;71.70
45283;DHT22;31023;44.994;1.796;2023-02-13T05:33:38;0.80;71.80
45283;DHT22;31023;44.994;1.796;2023-02-13T05:36:04;0.70;72.00
45283;DHT22;31023;44.994;1.796;2023-02-13T05:38:30;0.60;72.20
45283;DHT22;31023;44.994;1.796;2023-02-13T05:40:57;0.60;72.20
45283;DHT22;31023;44.994;1.796;2023-02-13T05:43:23;0.60;72.30
45283;DHT22;31023;44.994;1.796;2023-02-13T05:45:48;0.60;72.20
45283;DHT22;31023;44.994;1.796;2023-02-13T05:48:14;0.80;71.80
45283;DHT22;31023;44.994;1.796;2023-02-13T05:50:39;0.80;71.70
45283;DHT22;31023;44.994;1.796;2023-02-13T05:53:05;0.70;72.00
45283;DHT22;31023;44.994;1.796;2023-02-13T05:55:30;0.60;72.40
45283;DHT22;31023;44.994;1.796;2023-02-13T05:57:56;0.50;72.70
45283;DHT22;31023;44.994;1.796;2023-02-13T06:00:22;0.60;72.90
45283;DHT22;31023;44.994;1.796;2023-02-13T06:02:48;0.60;73.10
45283;DHT22;31023;44.994;1.796;2023-02-13T06:05:13;0.60;73.10
45283;DHT22;31023;44.994;1.796;2023-02-13T06:07:39;0.50;73.40
45283;DHT22;31023;44.994;1.796;2023-02-13T06:10:05;0.50;73.70
45283;DHT22;31023;44.994;1.796;2023-02-13T06:12:30;0.40;73.70
45283;DHT22;31023;44.994;1.796;2023-02-13T06:14:56;0.40;74.00
45283;DHT22;31023;44.994;1.796;2023-02-13T06:17:21;0.40;74.10
45283;DHT22;31023;44.994;1.796;2023-02-13T06:19:47;0.30;74.30
45283;DHT22;31023;44.994;1.796;2023-02-13T06:22:13;0.50;74.20
45283;DHT22;31023;44.994;1.796;2023-02-13T06:24:38;0.40;74.40
45283;DHT22;31023;44.994;1.796;2023-02-13T06:27:04;0.30;74.70
45283;DHT22;31023;44.994;1.796;2023-02-13T06:29:29;0.20;74.80
45283;DHT22;31023;44.994;1.796;2023-02-13T06:31:57;0.20;75.00
45283;DHT22;31023;44.994;1.796;2023-02-13T06:34:22;0.20;75.10
45283;DHT22;31023;44.994;1.796;2023-02-13T06:36:48;0.20;75.10
45283;DHT22;31023;44.994;1.796;2023-02-13T06:39:14;0.20;75.20
45283;DHT22;31023;44.994;1.796;2023-02-13T06:41:39;0.20;75.30
45283;DHT22;31023;44.994;1.796;2023-02-13T06:44:05;0.20;75.40
45283;DHT22;31023;44.994;1.796;2023-02-13T06:46:32;0.10;75.60
45283;DHT22;31023;44.994;1.796;2023-02-13T06:48:57;0.10;75.80
45283;DHT22;31023;44.994;1.796;2023-02-13T06:51:23;0.20;75.70
45283;DHT22;31023;44.994;1.796;2023-02-13T06:53:49;0.10;75.80
45283;DHT22;31023;44.994;1.796;2023-02-13T06:56:14;0.20;75.70
45283;DHT22;31023;44.994;1.796;2023-02-13T06:58:40;0.20;75.90
45283;DHT22;31023;44.994;1.796;2023-02-13T07:01:05;0.10;76.00
45283;DHT22;31023;44.994;1.796;2023-02-13T07:03:31;0.20;75.80
45283;DHT22;31023;44.994;1.796;2023-02-13T07:05:57;0.20;75.90
45283;DHT22;31023;44.994;1.796;2023-02-13T07:08:22;0.30;75.60
45283;DHT22;31023;44.994;1.796;2023-02-13T07:10:48;0.30;75.30
45283;DHT22;31023;44.994;1.796;2023-02-13T07:13:13;0.40;75.50
45283;DHT22;31023;44.994;1.796;2023-02-13T07:15:39;1.20;73.10
45283;DHT22;31023;44.994;1.796;2023-02-13T07:18:05;1.60;71.50
45283;DHT22;31023;44.994;1.796;2023-02-13T07:20:31;1.40;71.60
45283;DHT22;31023;44.994;1.796;2023-02-13T07:22:57;1.90;70.50
45283;DHT22;31023;44.994;1.796;2023-02-13T07:25:23;2.30;68.90
45283;DHT22;31023;44.994;1.796;2023-02-13T07:27:49;2.70;68.10
45283;DHT22;31023;44.994;1.796;2023-02-13T07:30:14;2.80;67.60
45283;DHT22;31023;44.994;1.796;2023-02-13T07:32:40;3.00;66.60
45283;DHT22;31023;44.994;1.796;2023-02-13T07:35:06;3.30;65.80
45283;DHT22;31023;44.994;1.796;2023-02-13T07:37:32;3.40;65.50
45283;DHT22;31023;44.994;1.796;2023-02-13T07:39:57;3.60;65.00
45283;DHT22;31023;44.994;1.796;2023-02-13T07:42:23;3.60;65.10
45283;DHT22;31023;44.994;1.796;2023-02-13T07:44:48;3.90;64.40
45283;DHT22;31023;44.994;1.796;2023-02-13T07:47:14;3.80;64.00
45283;DHT22;31023;44.994;1.796;2023-02-13T07:49:39;3.90;64.70
45283;DHT22;31023;44.994;1.796;2023-02-13T07:52:05;4.10;63.60
45283;DHT22;31023;44.994;1.796;2023-02-13T07:54:31;4.20;63.50
45283;DHT22;31023;44.994;1.796;2023-02-13T07:56:57;4.20;63.20
45283;DHT22;31023;44.994;1.796;2023-02-13T07:59:23;4.30;62.90
45283;DHT22;31023;44.994;1.796;2023-02-13T08:01:48;4.30;63.30
45283;DHT22;31023;44.994;1.796;2023-02-13T08:04:14;4.50;62.80
45283;DHT22;31023;44.994;1.796;2023-02-13T08:06:40;4.80;62.60
45283;DHT22;31023;44.994;1.796;2023-02-13T08:09:05;5.00;61.40
45283;DHT22;31023;44.994;1.796;2023-02-13T08:11:50;5.30;61.60
45283;DHT22;31023;44.994;1.796;2023-02-13T08:14:20;5.30;61.30
45283;DHT22;31023;44.994;1.796;2023-02-13T08:16:45;5.70;61.20
45283;DHT22;31023;44.994;1.796;2023-02-13T08:19:11;5.60;61.30
45283;DHT22;31023;44.994;1.796;2023-02-13T08:21:36;5.70;60.60
45283;DHT22;31023;44.994;1.796;2023-02-13T08:24:03;5.90;59.90
45283;DHT22;31023;44.994;1.796;2023-02-13T08:26:32;5.90;60.00
45283;DHT22;31023;44.994;1.796;2023-02-13T08:28:57;6.00;59.30
45283;DHT22;31023;44.994;1.796;2023-02-13T08:31:23;6.00;59.90
45283;DHT22;31023;44.994;1.796;2023-02-13T08:33:49;6.00;60.00
45283;DHT22;31023;44.994;1.796;2023-02-13T08:36:14;6.20;59.60
45283;DHT22;31023;44.994;1.796;2023-02-13T08:38:40;6.20;58.90
45283;DHT22;31023;44.994;1.796;2023-02-13T08:41:06;6.20;59.20
45283;DHT22;31023;44.994;1.796;2023-02-13T08:43:31;6.30;59.70
45283;DHT22;31023;44.994;1.796;2023-02-13T08:45:57;6.50;58.70
45283;DHT22;31023;44.994;1.796;2023-02-13T08:48:24;6.40;58.00
45283;DHT22;31023;44.994;1.796;2023-02-13T08:50:49;6.40;57.90
45283;DHT22;31023;44.994;1.796;2023-02-13T08:53:15;6.60;57.80
45283;DHT22;31023;44.994;1.796;2023-02-13T08:55:40;6.70;58.30
45283;DHT22;31023;44.994;1.796;2023-02-13T08:58:06;6.80;58.00
45283;DHT22;31023;44.994;1.796;2023-02-13T09:00:32;7.00;58.60
45283;DHT22;31023;44.994;1.796;2023-02-13T09:03:01;7.10;58.30
45283;DHT22;31023;44.994;1.796;2023-02-13T09:05:27;7.10;57.70
45283;DHT22;31023;44.994;1.796;2023-02-13T09:07:52;7.20;56.80
45283;DHT22;31023;44.994;1.796;2023-02-13T09:10:18;7.30;57.20
45283;DHT22;31023;44.994;1.796;2023-02-13T09:12:43;7.50;58.00
45283;DHT22;31023;44.994;1.796;2023-02-13T09:15:09;7.70;56.30
45283;DHT22;31023;44.994;1.796;2023-02-13T09:17:35;7.70;55.90
45283;DHT22;31023;44.994;1.796;2023-02-13T09:20:00;7.60;57.50
45283;DHT22;31023;44.994;1.796;2023-02-13T09:22:26;7.90;56.40
45283;DHT22;31023;44.994;1.796;2023-02-13T09:24:53;8.10;56.70
45283;DHT22;31023;44.994;1.796;2023-02-13T09:27:18;8.20;54.90
45283;DHT22;31023;44.994;1.796;2023-02-13T09:29:44;8.30;54.70
45283;DHT22;31023;44.994;1.796;2023-02-13T09:32:09;8.50;54.30
45283;DHT22;31023;44.994;1.796;2023-02-13T09:34:35;8.70;55.00
45283;DHT22;31023;44.994;1.796;2023-02-13T09:37:01;8.80;54.40
45283;DHT22;31023;44.994;1.796;2023-02-13T09:39:26;9.10;54.90
45283;DHT22;31023;44.994;1.796;2023-02-13T09:41:52;9.20;53.70
45283;DHT22;31023;44.994;1.796;2023-02-13T09:49:44;8.70;53.30
45283;DHT22;31023;44.994;1.796;2023-02-13T09:52:10;8.80;52.80
45283;DHT22;31023;44.994;1.796;2023-02-13T09:54:36;8.80;52.30
45283;DHT22;31023;44.994;1.796;2023-02-13T09:57:04;9.00;54.20
45283;DHT22;31023;44.994;1.796;2023-02-13T10:07:39;9.30;53.90
45283;DHT22;31023;44.994;1.796;2023-02-13T10:10:18;9.20;52.70
45283;DHT22;31023;44.994;1.796;2023-02-13T10:12:50;9.40;52.40
45283;DHT22;31023;44.994;1.796;2023-02-13T10:15:23;9.60;53.90
45283;DHT22;31023;44.994;1.796;2023-02-13T10:18:02;9.30;51.90
45283;DHT22;31023;44.994;1.796;2023-02-13T10:25:47;9.50;50.60
45283;DHT22;31023;44.994;1.796;2023-02-13T10:28:15;9.80;51.30
45283;DHT22;31023;44.994;1.796;2023-02-13T10:30:48;9.80;50.50
45283;DHT22;31023;44.994;1.796;2023-02-13T10:33:16;9.80;50.10
45283;DHT22;31023;44.994;1.796;2023-02-13T10:35:58;9.80;48.50
45283;DHT22;31023;44.994;1.796;2023-02-13T10:38:26;9.90;49.10
45283;DHT22;31023;44.994;1.796;2023-02-13T10:43:26;10.30;51.70
45283;DHT22;31023;44.994;1.796;2023-02-13T10:45:56;10.20;50.80
45283;DHT22;31023;44.994;1.796;2023-02-13T10:50:55;10.20;48.80
45283;DHT22;31023;44.994;1.796;2023-02-13T11:03:45;10.80;48.70
45283;DHT22;31023;44.994;1.796;2023-02-13T11:06:13;10.80;47.90
45283;DHT22;31023;44.994;1.796;2023-02-13T11:08:41;10.90;48.00
45283;DHT22;31023;44.994;1.796;2023-02-13T11:16:39;10.80;48.10
45283;DHT22;31023;44.994;1.796;2023-02-13T11:19:05;11.10;51.40
45283;DHT22;31023;44.994;1.796;2023-02-13T11:21:32;10.90;47.00
45283;DHT22;31023;44.994;1.796;2023-02-13T11:23:59;11.00;46.80
45283;DHT22;31023;44.994;1.796;2023-02-13T11:26:31;11.30;50.40
45283;DHT22;31023;44.994;1.796;2023-02-13T11:28:59;11.50;48.10
45283;DHT22;31023;44.994;1.796;2023-02-13T11:31:30;11.40;46.70
45283;DHT22;31023;44.994;1.796;2023-02-13T11:33:56;11.30;46.10
45283;DHT22;31023;44.994;1.796;2023-02-13T11:36:32;11.60;46.70
45283;DHT22;31023;44.994;1.796;2023-02-13T11:39:02;11.80;45.40
45283;DHT22;31023;44.994;1.796;2023-02-13T11:41:29;11.50;47.00
45283;DHT22;31023;44.994;1.796;2023-02-13T11:43:56;11.30;46.60
45283;DHT22;31023;44.994;1.796;2023-02-13T11:46:47;11.60;47.50
45283;DHT22;31023;44.994;1.796;2023-02-13T11:49:14;11.40;49.70
45283;DHT22;31023;44.994;1.796;2023-02-13T11:51:44;11.60;54.50
45283;DHT22;31023;44.994;1.796;2023-02-13T11:56:50;11.80;55.50
45283;DHT22;31023;44.994;1.796;2023-02-13T11:59:16;11.40;54.10
45283;DHT22;31023;44.994;1.796;2023-02-13T12:01:41;11.80;52.30
45283;DHT22;31023;44.994;1.796;2023-02-13T12:04:15;11.40;50.10
45283;DHT22;31023;44.994;1.796;2023-02-13T12:06:58;11.50;51.80
45283;DHT22;31023;44.994;1.796;2023-02-13T12:09:24;11.80;59.60
45283;DHT22;31023;44.994;1.796;2023-02-13T12:11:52;12.20;59.40
45283;DHT22;31023;44.994;1.796;2023-02-13T12:14:21;12.00;58.10
45283;DHT22;31023;44.994;1.796;2023-02-13T12:16:54;11.90;56.80
45283;DHT22;31023;44.994;1.796;2023-02-13T12:19:32;12.00;55.50
45283;DHT22;31023;44.994;1.796;2023-02-13T12:32:19;11.70;52.90
45283;DHT22;31023;44.994;1.796;2023-02-13T12:37:26;12.30;57.00
45283;DHT22;31023;44.994;1.796;2023-02-13T12:47:37;12.50;54.00
45283;DHT22;31023;44.994;1.796;2023-02-13T12:52:41;12.70;58.70
45283;DHT22;31023;44.994;1.796;2023-02-13T13:10:32;12.20;53.10
45283;DHT22;31023;44.994;1.796;2023-02-13T13:13:09;12.10;55.10
45283;DHT22;31023;44.994;1.796;2023-02-13T13:18:24;12.40;54.00
45283;DHT22;31023;44.994;1.796;2023-02-13T13:23:21;12.30;53.70
45283;DHT22;31023;44.994;1.796;2023-02-13T13:28:43;12.20;47.70
45283;DHT22;31023;44.994;1.796;2023-02-13T13:31:11;12.00;50.90
45283;DHT22;31023;44.994;1.796;2023-02-13T13:33:38;12.20;49.50
45283;DHT22;31023;44.994;1.796;2023-02-13T13:36:20;12.40;42.60
45283;DHT22;31023;44.994;1.796;2023-02-13T13:44:00;11.90;42.50
45283;DHT22;31023;44.994;1.796;2023-02-13T13:51:29;12.60;44.00
45283;DHT22;31023;44.994;1.796;2023-02-13T13:59:16;12.70;44.70
45283;DHT22;31023;44.994;1.796;2023-02-13T14:01:43;13.00;44.90
45283;DHT22;31023;44.994;1.796;2023-02-13T14:11:53;12.30;45.90
45283;DHT22;31023;44.994;1.796;2023-02-13T14:16:56;12.90;42.90
45283;DHT22;31023;44.994;1.796;2023-02-13T14:19:35;13.10;40.00
45283;DHT22;31023;44.994;1.796;2023-02-13T14:24:51;12.80;39.20
45283;DHT22;31023;44.994;1.796;2023-02-13T14:27:19;12.90;39.50
45283;DHT22;31023;44.994;1.796;2023-02-13T14:29:46;12.70;38.40
45283;DHT22;31023;44.994;1.796;2023-02-13T14:32:14;12.90;37.20
45283;DHT22;31023;44.994;1.796;2023-02-13T14:34:41;13.10;38.60
45283;DHT22;31023;44.994;1.796;2023-02-13T14:39:41;13.00;41.30
45283;DHT22;31023;44.994;1.796;2023-02-13T14:42:24;12.90;37.00
45283;DHT22;31023;44.994;1.796;2023-02-13T14:44:52;13.10;39.90
45283;DHT22;31023;44.994;1.796;2023-02-13T14:49:48;12.90;37.90
45283;DHT22;31023;44.994;1.796;2023-02-13T14:52:16;12.80;36.40
45283;DHT22;31023;44.994;1.796;2023-02-13T14:54:44;13.20;38.90
45283;DHT22;31023;44.994;1.796;2023-02-13T15:02:45;12.00;47.60
45283;DHT22;31023;44.994;1.796;2023-02-13T15:05:15;12.00;46.20
45283;DHT22;31023;44.994;1.796;2023-02-13T15:07:58;11.90;44.00
45283;DHT22;31023;44.994;1.796;2023-02-13T15:12:58;12.10;44.40
45283;DHT22;31023;44.994;1.796;2023-02-13T15:15:25;11.90;47.00
45283;DHT22;31023;44.994;1.796;2023-02-13T15:17:55;11.70;47.50
45283;DHT22;31023;44.994;1.796;2023-02-13T15:20:23;11.60;48.60
45283;DHT22;31023;44.994;1.796;2023-02-13T15:22:49;11.60;48.20
45283;DHT22;31023;44.994;1.796;2023-02-13T15:25:22;11.50;47.10
45283;DHT22;31023;44.994;1.796;2023-02-13T15:27:50;11.40;50.30
45283;DHT22;31023;44.994;1.796;2023-02-13T15:30:22;11.50;50.70
45283;DHT22;31023;44.994;1.796;2023-02-13T15:32:58;11.40;48.60
45283;DHT22;31023;44.994;1.796;2023-02-13T15:37:50;11.20;47.50
45283;DHT22;31023;44.994;1.796;2023-02-13T15:40:21;11.30;49.20
45283;DHT22;31023;44.994;1.796;2023-02-13T15:42:47;11.30;49.50
45283;DHT22;31023;44.994;1.796;2023-02-13T15:45:13;11.50;49.50
45283;DHT22;31023;44.994;1.796;2023-02-13T15:47:39;11.70;47.60
45283;DHT22;31023;44.994;1.796;2023-02-13T15:50:12;11.50;47.80
45283;DHT22;31023;44.994;1.796;2023-02-13T15:52:38;11.40;46.10
45283;DHT22;31023;44.994;1.796;2023-02-13T15:55:04;11.70;47.90
45283;DHT22;31023;44.994;1.796;2023-02-13T15:57:30;11.30;48.60
45283;DHT22;31023;44.994;1.796;2023-02-13T15:59:56;11.40;48.00
45283;DHT22;31023;44.994;1.796;2023-02-13T16:02:24;11.50;47.70
45283;DHT22;31023;44.994;1.796;2023-02-13T16:04:53;11.30;46.60
45283;DHT22;31023;44.994;1.796;2023-02-13T16:07:19;11.30;46.20
45283;DHT22;31023;44.994;1.796;2023-02-13T16:09:44;11.30;46.50
45283;DHT22;31023;44.994;1.796;2023-02-13T16:12:16;11.00;47.90
45283;DHT22;31023;44.994;1.796;2023-02-13T16:14:52;11.20;47.20
45283;DHT22;31023;44.994;1.796;2023-02-13T16:17:21;11.40;46.30
45283;DHT22;31023;44.994;1.796;2023-02-13T16:19:52;11.30;47.50
45283;DHT22;31023;44.994;1.796;2023-02-13T16:24:51;11.20;46.10
45283;DHT22;31023;44.994;1.796;2023-02-13T16:27:18;10.90;46.20
45283;DHT22;31023;44.994;1.796;2023-02-13T16:30:15;11.00;45.40
45283;DHT22;31023;44.994;1.796;2023-02-13T16:32:45;11.10;45.20
45283;DHT22;31023;44.994;1.796;2023-02-13T16:37:56;11.10;44.40
45283;DHT22;31023;44.994;1.796;2023-02-13T16:40:32;11.00;44.00
45283;DHT22;31023;44.994;1.796;2023-02-13T16:45:42;10.80;43.20
45283;DHT22;31023;44.994;1.796;2023-02-13T16:48:11;10.70;44.00
45283;DHT22;31023;44.994;1.796;2023-02-13T16:50:37;10.70;43.90
45283;DHT22;31023;44.994;1.796;2023-02-13T16:53:03;10.70;44.10
45283;DHT22;31023;44.994;1.796;2023-02-13T16:55:29;10.70;43.20
45283;DHT22;31023;44.994;1.796;2023-02-13T16:58:04;10.60;42.40
45283;DHT22;31023;44.994;1.796;2023-02-13T17:00:30;10.60;42.50
45283;DHT22;31023;44.994;1.796;2023-02-13T17:02:56;10.50;42.30
45283;DHT22;31023;44.994;1.796;2023-02-13T17:05:22;10.40;42.50
45283;DHT22;31023;44.994;1.796;2023-02-13T17:07:49;10.30;42.00
45283;DHT22;31023;44.994;1.796;2023-02-13T17:12:56;10.20;42.10
45283;DHT22;31023;44.994;1.796;2023-02-13T17:15:24;10.20;41.60
45283;DHT22;31023;44.994;1.796;2023-02-13T17:17:50;10.00;41.50
45283;DHT22;31023;44.994;1.796;2023-02-13T17:20:16;10.00;40.70
45283;DHT22;31023;44.994;1.796;2023-02-13T17:22:43;9.90;40.50
45283;DHT22;31023;44.994;1.796;2023-02-13T17:25:18;9.70;40.70
45283;DHT22;31023;44.994;1.796;2023-02-13T17:27:45;10.80;37.20
45283;DHT22;31023;44.994;1.796;2023-02-13T17:30:17;11.50;35.90
45283;DHT22;31023;44.994;1.796;2023-02-13T17:32:43;11.30;35.80
45283;DHT22;31023;44.994;1.796;2023-02-13T17:35:10;10.50;36.80
45283;DHT22;31023;44.994;1.796;2023-02-13T17:37:35;10.20;37.20
45283;DHT22;31023;44.994;1.796;2023-02-13T17:40:01;10.10;37.10
45283;DHT22;31023;44.994;1.796;2023-02-13T17:42:27;10.10;36.80
45283;DHT22;31023;44.994;1.796;2023-02-13T17:44:54;10.10;37.10
45283;DHT22;31023;44.994;1.796;2023-02-13T17:47:20;10.10;37.30
45283;DHT22;31023;44.994;1.796;2023-02-13T17:49:45;10.30;37.00
45283;DHT22;31023;44.994;1.796;2023-02-13T17:52:16;10.50;36.50
45283;DHT22;31023;44.994;1.796;2023-02-13T17:54:42;10.50;36.60
45283;DHT22;31023;44.994;1.796;2023-02-13T17:57:09;10.20;36.90
45283;DHT22;31023;44.994;1.796;2023-02-13T17:59:34;10.20;37.00
45283;DHT22;31023;44.994;1.796;2023-02-13T18:02:00;10.10;37.10
45283;DHT22;31023;44.994;1.796;2023-02-13T18:04:26;10.00;37.30
45283;DHT22;31023;44.994;1.796;2023-02-13T18:06:51;9.80;37.50
45283;DHT22;31023;44.994;1.796;2023-02-13T18:09:17;9.90;37.50
45283;DHT22;31023;44.994;1.796;2023-02-13T18:11:47;9.90;37.40
45283;DHT22;31023;44.994;1.796;2023-02-13T18:14:13;9.50;38.00
45283;DHT22;31023;44.994;1.796;2023-02-13T18:16:39;9.20;38.40
45283;DHT22;31023;44.994;1.796;2023-02-13T18:19:04;9.40;38.60
45283;DHT22;31023;44.994;1.796;2023-02-13T18:21:30;9.30;38.90
45283;DHT22;31023;44.994;1.796;2023-02-13T18:23:56;9.30;39.10
45283;DHT22;31023;44.994;1.796;2023-02-13T18:26:22;9.40;39.20
45283;DHT22;31023;44.994;1.796;2023-02-13T18:28:47;9.40;39.30
45283;DHT22;31023;44.994;1.796;2023-02-13T18:31:19;9.30;39.70
45283;DHT22;31023;44.994;1.796;2023-02-13T18:33:45;9.10;40.00
45283;DHT22;31023;44.994;1.796;2023-02-13T18:36:11;9.00;40.40
45283;DHT22;31023;44.994;1.796;2023-02-13T18:38:36;9.10;40.60
45283;DHT22;31023;44.994;1.796;2023-02-13T18:41:02;8.90;40.70
45283;DHT22;31023;44.994;1.796;2023-02-13T18:43:28;9.00;40.50
45283;DHT22;31023;44.994;1.796;2023-02-13T18:45:53;9.10;40.20
45283;DHT22;31023;44.994;1.796;2023-02-13T18:48:19;9.30;39.90
45283;DHT22;31023;44.994;1.796;2023-02-13T18:50:45;9.20;40.00
45283;DHT22;31023;44.994;1.796;2023-02-13T18:53:10;9.10;40.40
45283;DHT22;31023;44.994;1.796;2023-02-13T18:55:36;9.00;40.70
45283;DHT22;31023;44.994;1.796;2023-02-13T18:58:02;9.50;40.50
45283;DHT22;31023;44.994;1.796;2023-02-13T19:00:28;9.50;40.40
45283;DHT22;31023;44.994;1.796;2023-02-13T19:02:54;9.10;41.00
45283;DHT22;31023;44.994;1.796;2023-02-13T19:05:22;9.20;41.10